Souris, North Dakota
Current Conditions -  °F | °C
As of 10:58 AM on Tuesday 27 Jan 2015 (Local Time) from KMIB Reporting Station
Clear Clear  
Wind Chill: 29°   Ceiling: Unl
Heat Index: 35°   Visibility: 10mi
Dew Point: 35°   Wind: 8mph
Humidity: 99%   Direction: 170°S
Pressure: 29.82"   Gusts: NA
Location:  48.91°N, 100.68°W
Report Text: KMIB 271658Z AUTO 17007KT 10SM CLR 02/02 A2982 RMK AO2 SLP122 T00170016 $
Loading
Personal Weather Stations






























Interactive Weather Map New forecast layout! Learn more

10-Day Weather Forecast

Advertisements
Track Severe Weather on mobile